Open Full Screen Window  High Contrast Mode
Wind Gusting 00 knots
04
June 29, 2016 12:15 AM CDT
Weather Information
Wind Direction
  090 °
Wind Speed
  04 kt (5 mph)
Wind Gust
  00 kt (0 mph)
Altimeter
30.14 in
Visibility
10 SM
Temperature
18° C
64° F
Dewpoint
18° C
64° F
Humidity
100%
1hr Rain Fall
00.00 in.
24hr Rain Fall
00.04 in.
Sky Condition
Broken @ 5,000 ft
VFR

METAR KMDS 290515Z AUTO 09004KT 10SM BKN050 18/18 A3014 RMK AO2

*Background is not an actual portrayal of the airport.